Time;durP1;ratioP1;P1;durP2;ratioP2;P2;SDS_P1;SDS_P2;PMS_P1;PMS_P2;Temp;Humidity;BMP_temperature;BMP_pressure;BME280_temperature;BME280_humidity;BME280_pressure;Samples;Min_cycle;Max_cycle;Signal;HPM_P1;HPM_P2
2021/12/02 00:01:09;;;;;;;;;1.75;1.75;;;;;10.09;60.09;99898.59;5059652;28;46310;-66
2021/12/02 00:03:36;;;;;;;;;6.50;2.00;;;;;10.08;60.12;99901.22;5055679;28;45289;-67
2021/12/02 00:06:03;;;;;;;;;2.00;2.00;;;;;10.07;60.15;99900.34;5056560;28;45672;-67
2021/12/02 00:08:29;;;;;;;;;4.00;4.00;;;;;9.99;60.23;99889.09;5059113;28;45391;-67
2021/12/02 00:10:55;;;;;;;;;3.00;3.00;;;;;10.08;60.55;99903.84;5056067;28;46171;-69
2021/12/02 00:13:24;;;;;;;;;4.00;3.75;;;;;10.04;60.04;99897.78;5058299;28;45331;-66
2021/12/02 00:15:57;;;;;;;;;3.00;3.00;;;;;10.03;60.21;99898.63;5060429;28;45537;-68
2021/12/02 00:21:05;;;;;;;;;2.00;2.00;;;;;9.93;60.16;99883.91;5056260;28;45716;-67
2021/12/02 00:24:00;;;;;;;;;4.00;3.00;;;;;10.03;60.21;99909.09;5057320;28;46710;-70
2021/12/02 00:26:27;;;;;;;;;5.25;3.00;;;;;9.98;60.55;99898.69;5037345;28;45565;-67
2021/12/02 00:28:55;;;;;;;;;7.00;3.00;;;;;10.05;60.32;99917.81;5054915;28;45369;-67
2021/12/02 00:31:24;;;;;;;;;4.00;3.00;;;;;10.04;60.42;99917.84;5055752;28;46066;-67
2021/12/02 00:33:55;;;;;;;;;5.00;3.00;;;;;10.05;60.31;99922.19;5056107;28;45436;-67
2021/12/02 00:36:26;;;;;;;;;3.75;3.00;;;;;10.01;60.47;99912.63;5056329;28;45466;-67
2021/12/02 00:38:53;;;;;;;;;2.50;2.00;;;;;10.02;60.19;99924.84;5056164;28;45510;-67
2021/12/02 00:41:24;;;;;;;;;4.00;3.00;;;;;10.04;60.51;99930.94;5055957;28;46250;-67
2021/12/02 00:43:52;;;;;;;;;4.50;3.75;;;;;10.04;60.43;99931.78;5057430;28;45817;-67
2021/12/02 00:46:20;;;;;;;;;4.50;4.25;;;;;10.06;60.15;99929.13;5060489;28;45485;-66
2021/12/02 00:48:46;;;;;;;;;5.00;4.00;;;;;9.98;60.68;99917.00;5057256;28;45388;-68
2021/12/02 00:51:15;;;;;;;;;3.75;3.00;;;;;9.95;60.69;99910.94;5055749;28;46108;-67
2021/12/02 00:53:44;;;;;;;;;3.00;2.25;;;;;10.00;60.74;99922.22;5054886;28;45633;-67
2021/12/02 00:56:12;;;;;;;;;3.50;3.25;;;;;10.04;60.92;99926.56;5060250;28;45351;-66
2021/12/02 00:58:38;;;;;;;;;3.00;3.00;;;;;9.96;61.02;99915.28;5060828;28;45446;-66
2021/12/02 01:01:04;;;;;;;;;3.50;3.50;;;;;10.05;61.65;99935.25;5059813;28;45507;-66
2021/12/02 01:03:35;;;;;;;;;5.00;4.25;;;;;10.11;61.48;99943.06;5038561;28;45461;-67
2021/12/02 01:06:03;;;;;;;;;3.00;3.00;;;;;10.03;61.36;99939.63;5058080;28;45437;-66
2021/12/02 01:08:30;;;;;;;;;3.00;3.00;;;;;9.96;61.71;99942.28;5060269;28;45454;-66
2021/12/02 01:11:00;;;;;;;;;4.50;3.25;;;;;10.01;61.71;99950.09;5055649;28;45363;-66
2021/12/02 01:13:26;;;;;;;;;4.00;4.00;;;;;10.01;62.09;99955.34;5053681;28;45441;-66
2021/12/02 01:15:52;;;;;;;;;4.00;2.75;;;;;10.01;62.06;99951.84;5054382;28;45742;-66
2021/12/02 01:18:19;;;;;;;;;4.50;3.50;;;;;9.96;62.26;99949.28;5037714;28;45713;-66
2021/12/02 01:20:47;;;;;;;;;4.00;3.75;;;;;9.92;62.26;99945.84;5054821;28;45564;-66
2021/12/02 01:23:14;;;;;;;;;3.75;3.00;;;;;10.01;62.18;99967.56;5058594;28;45407;-66
2021/12/02 01:25:42;;;;;;;;;6.00;4.00;;;;;10.01;62.08;99960.56;5055964;28;45709;-67
2021/12/02 01:28:09;;;;;;;;;5.00;5.00;;;;;10.01;62.10;99967.56;5056022;28;45335;-67
2021/12/02 01:30:34;;;;;;;;;5.25;5.25;;;;;10.00;61.99;99965.84;5055177;28;45790;-66
2021/12/02 01:33:03;;;;;;;;;6.50;5.00;;;;;10.00;61.96;99960.59;5054788;28;45330;-66
2021/12/02 01:35:30;;;;;;;;;8.00;5.00;;;;;9.80;62.29;99938.09;5059414;28;45344;-66
2021/12/02 01:37:57;;;;;;;;;7.00;6.00;;;;;9.88;61.74;99957.19;5041337;28;45314;-66
2021/12/02 01:40:23;;;;;;;;;7.00;5.00;;;;;9.89;62.17;99961.53;5055733;28;45459;-66
2021/12/02 01:42:53;;;;;;;;;4.00;4.00;;;;;9.96;62.21;99965.84;5054948;28;45342;-67
2021/12/02 01:45:26;;;;;;;;;6.25;4.75;;;;;10.02;62.12;99979.78;5057838;28;45368;-67
2021/12/02 01:47:54;;;;;;;;;4.00;4.00;;;;;9.98;61.80;99984.16;5059292;28;45505;-67
2021/12/02 01:50:22;;;;;;;;;6.00;5.25;;;;;10.04;61.97;99994.59;5058925;28;45574;-65
2021/12/02 01:52:55;;;;;;;;;6.00;5.50;;;;;9.93;61.83;99980.69;5059161;28;45478;-67
2021/12/02 01:55:21;;;;;;;;;5.25;5.25;;;;;10.05;61.74;100000.66;5055652;28;45564;-66
2021/12/02 01:57:59;;;;;;;;;6.50;6.00;;;;;10.02;61.88;99998.09;5054957;28;45389;-67
2021/12/02 02:00:28;;;;;;;;;7.75;6.25;;;;;9.94;61.91;99979.81;5040056;28;46927;-66
2021/12/02 02:02:54;;;;;;;;;8.75;5.50;;;;;10.02;62.00;99990.25;5054470;28;45459;-67
2021/12/02 02:05:20;;;;;;;;;9.00;8.00;;;;;10.07;61.87;100009.38;5054466;28;45467;-67
2021/12/02 02:07:53;;;;;;;;;8.50;7.25;;;;;10.07;61.74;100018.09;5054671;28;45685;-68
2021/12/02 02:10:19;;;;;;;;;6.25;5.00;;;;;10.07;61.56;100017.22;5053821;28;46733;-67
2021/12/02 02:12:45;;;;;;;;;7.50;6.00;;;;;10.06;61.52;100026.84;5054267;28;45308;-67
2021/12/02 02:15:11;;;;;;;;;5.50;4.50;;;;;10.00;61.72;100012.94;5054684;28;45707;-66
2021/12/02 02:17:45;;;;;;;;;6.25;5.25;;;;;9.93;62.03;100004.25;5054617;28;45466;-66
2021/12/02 02:20:13;;;;;;;;;5.75;4.00;;;;;9.93;61.59;100006.84;5053867;28;45712;-67
2021/12/02 02:22:39;;;;;;;;;8.25;6.00;;;;;10.03;61.76;100039.06;5054046;28;45532;-65
2021/12/02 02:25:11;;;;;;;;;6.50;6.00;;;;;9.92;61.87;100020.84;5054423;28;45712;-67
2021/12/02 02:27:38;;;;;;;;;10.75;6.75;;;;;10.02;61.97;100032.09;5054686;28;45847;-67
2021/12/02 02:30:04;;;;;;;;;6.25;6.25;;;;;10.06;61.76;100036.41;5055503;28;45551;-67
2021/12/02 02:32:33;;;;;;;;;9.00;4.25;;;;;10.05;61.68;100040.78;5058526;28;45334;-67
2021/12/02 02:34:58;;;;;;;;;4.75;4.75;;;;;10.04;61.98;100046.03;5037728;28;45401;-66
2021/12/02 02:37:24;;;;;;;;;6.00;5.50;;;;;10.03;61.56;100042.53;5054593;28;45334;-68
2021/12/02 02:39:50;;;;;;;;;8.75;5.00;;;;;10.01;61.72;100041.66;5054070;28;46173;-67
2021/12/02 02:42:22;;;;;;;;;6.00;4.50;;;;;9.97;61.40;100037.38;5054178;28;45374;-66
2021/12/02 02:44:47;;;;;;;;;6.75;5.75;;;;;10.02;61.25;100048.66;5053967;28;45355;-67
2021/12/02 02:47:13;;;;;;;;;4.75;4.75;;;;;10.04;61.30;100057.38;5035411;28;45349;-67
2021/12/02 02:49:38;;;;;;;;;3.50;3.25;;;;;10.04;61.02;100060.00;5053811;28;46559;-65
2021/12/02 02:52:05;;;;;;;;;3.00;3.00;;;;;10.00;60.79;100060.00;5055100;28;45426;-66
2021/12/02 02:54:31;;;;;;;;;7.00;5.00;;;;;9.96;60.98;100053.91;5042693;28;45308;-65
2021/12/02 02:57:03;;;;;;;;;3.00;3.00;;;;;9.99;60.53;100067.00;5058111;28;45469;-66
2021/12/02 02:59:55;;;;;;;;;3.00;3.00;;;;;9.93;60.96;100059.19;5056031;28;46795;-67
2021/12/02 03:02:40;;;;;;;;;7.25;5.00;;;;;9.93;60.69;100061.78;5057175;28;45556;-66
2021/12/02 03:05:23;;;;;;;;;4.75;4.00;;;;;9.93;60.70;100065.28;5040275;28;45474;-66
2021/12/02 03:07:59;;;;;;;;;4.00;4.00;;;;;9.89;61.15;100060.06;5061629;28;45476;-66
2021/12/02 03:10:43;;;;;;;;;5.00;5.00;;;;;9.87;60.90;100051.34;5057774;28;45489;-66
2021/12/02 03:13:20;;;;;;;;;5.25;2.75;;;;;9.95;60.93;100078.34;5057100;28;45480;-67
2021/12/02 03:18:34;;;;;;;;;3.25;3.00;;;;;9.82;60.20;100059.22;5057459;28;45327;-66
2021/12/02 03:20:59;;;;;;;;;4.75;3.50;;;;;9.88;60.07;100081.88;5056631;28;45531;-65
2021/12/02 03:23:25;;;;;;;;;3.25;3.25;;;;;9.88;59.79;100089.72;5042181;28;45573;-66
2021/12/02 03:25:51;;;;;;;;;3.00;3.00;;;;;9.89;60.07;100088.84;5056785;28;45630;-66
2021/12/02 03:28:17;;;;;;;;;4.50;3.00;;;;;9.85;59.98;100088.00;5047860;28;45641;-66
2021/12/02 03:30:46;;;;;;;;;5.25;3.00;;;;;9.85;59.57;100089.75;5036871;28;45761;-66
2021/12/02 03:33:12;;;;;;;;;2.75;2.50;;;;;9.86;59.83;100105.41;5038574;28;45321;-66
2021/12/02 03:35:38;;;;;;;;;3.75;2.00;;;;;9.79;59.64;100098.47;5037611;28;45511;-66
2021/12/02 03:38:04;;;;;;;;;1.75;1.75;;;;;9.48;59.16;100046.34;5037490;28;45276;-66
2021/12/02 03:40:30;;;;;;;;;2.00;2.00;;;;;9.66;59.46;100074.16;5019920;28;45344;-67
2021/12/02 03:42:56;;;;;;;;;3.00;2.00;;;;;9.58;59.55;100065.47;5039261;28;45447;-68
2021/12/02 03:45:24;;;;;;;;;3.00;1.25;;;;;9.79;59.41;100108.09;5036543;28;45693;-67
2021/12/02 03:47:51;;;;;;;;;3.00;2.50;;;;;9.79;59.33;100100.25;5036230;28;45452;-67
2021/12/02 03:50:16;;;;;;;;;0.50;0.50;;;;;9.75;59.21;100101.97;5022031;28;46437;-66
2021/12/02 03:52:42;;;;;;;;;3.75;1.75;;;;;9.72;58.81;100107.25;5036375;28;45523;-67
2021/12/02 03:55:08;;;;;;;;;4.00;1.00;;;;;9.70;58.93;100109.84;5036914;28;45475;-66
2021/12/02 03:57:37;;;;;;;;;1.00;1.00;;;;;9.68;58.92;100109.00;5036134;28;45476;-66
2021/12/02 04:00:04;;;;;;;;;1.50;1.50;;;;;9.68;58.38;100121.19;5038733;28;46669;-66
2021/12/02 04:02:29;;;;;;;;;1.00;1.00;;;;;9.72;58.62;100125.53;5037532;28;45372;-67
2021/12/02 04:04:55;;;;;;;;;0.75;0.75;;;;;9.70;59.37;100128.16;5035521;28;45460;-67
2021/12/02 04:07:25;;;;;;;;;1.75;1.00;;;;;9.69;58.76;100129.03;5041200;28;45312;-67
2021/12/02 04:09:52;;;;;;;;;1.00;1.00;;;;;9.73;58.24;100141.25;5040724;28;45409;-67
2021/12/02 04:15:13;;;;;;;;;3.25;1.00;;;;;9.67;57.81;100128.19;5027479;28;45450;-66
2021/12/02 04:17:43;;;;;;;;;1.25;1.25;;;;;9.65;57.89;100129.91;5036073;28;45474;-67
2021/12/02 04:20:16;;;;;;;;;1.00;1.00;;;;;9.62;56.38;100127.31;5040150;28;45508;-67
2021/12/02 04:22:43;;;;;;;;;1.00;1.00;;;;;9.61;57.12;100133.44;5040304;28;45594;-67
2021/12/02 04:25:10;;;;;;;;;2.25;0.50;;;;;9.60;56.43;100128.22;5038353;28;45328;-65
2021/12/02 04:27:36;;;;;;;;;2.00;1.00;;;;;9.54;56.30;100126.50;5036189;28;45406;-67
2021/12/02 04:30:05;;;;;;;;;3.25;0.50;;;;;9.52;56.42;100136.94;5035331;28;46092;-66
2021/12/02 04:32:31;;;;;;;;;1.25;1.00;;;;;9.52;55.33;100147.41;5036113;28;45524;-67
2021/12/02 04:34:57;;;;;;;;;4.75;2.00;;;;;9.47;55.29;100137.84;5035652;28;45367;-67
2021/12/02 04:37:23;;;;;;;;;4.00;2.00;;;;;9.50;55.24;100156.13;5035785;28;45378;-67
2021/12/02 04:39:49;;;;;;;;;2.50;2.00;;;;;9.48;54.82;100166.59;5035721;28;45537;-67
2021/12/02 04:42:15;;;;;;;;;1.00;1.00;;;;;9.45;54.97;100168.34;5035745;28;45229;-67
2021/12/02 04:44:40;;;;;;;;;2.00;1.00;;;;;9.32;54.08;100152.72;5039161;28;45446;-68
2021/12/02 04:47:06;;;;;;;;;2.75;1.00;;;;;9.45;54.67;100178.81;5035831;28;45495;-66
2021/12/02 04:49:32;;;;;;;;;1.00;1.00;;;;;9.43;54.12;100184.03;5034991;28;46202;-67
2021/12/02 04:51:58;;;;;;;;;1.25;1.00;;;;;9.37;54.68;100178.78;5035161;28;45561;-67
2021/12/02 04:54:24;;;;;;;;;1.00;0.75;;;;;9.32;54.42;100202.34;5035466;28;45821;-68
2021/12/02 04:56:49;;;;;;;;;1.00;1.00;;;;;9.24;55.42;100192.78;5035612;28;45494;-66
2021/12/02 04:59:15;;;;;;;;;4.25;1.00;;;;;9.24;55.07;100192.78;5035255;28;45673;-67
2021/12/02 05:01:41;;;;;;;;;2.25;1.00;;;;;9.20;55.02;100194.50;5038933;28;45503;-66
2021/12/02 05:04:06;;;;;;;;;2.50;2.00;;;;;9.22;55.80;100204.97;5035568;28;45523;-66
2021/12/02 05:06:32;;;;;;;;;1.00;1.00;;;;;9.17;55.38;100201.50;5035845;28;46095;-65
2021/12/02 05:09:04;;;;;;;;;3.00;1.25;;;;;9.17;55.30;100204.09;5037817;28;46417;-66
2021/12/02 05:11:31;;;;;;;;;1.75;1.75;;;;;9.15;55.19;100209.31;5034682;28;45836;-66
2021/12/02 05:13:56;;;;;;;;;3.75;1.00;;;;;9.11;55.32;100198.03;5035596;28;45486;-66
2021/12/02 05:16:22;;;;;;;;;2.75;2.00;;;;;9.09;55.05;100204.13;5039975;28;45357;-67
2021/12/02 05:18:47;;;;;;;;;3.50;2.00;;;;;8.98;54.97;100200.63;5039109;28;45620;-66
2021/12/02 05:21:13;;;;;;;;;1.75;1.00;;;;;9.04;55.98;100214.56;5039122;28;45215;-67
2021/12/02 05:23:39;;;;;;;;;3.00;1.00;;;;;8.96;55.34;100218.03;5036720;28;45410;-66
2021/12/02 05:26:04;;;;;;;;;4.00;1.00;;;;;9.00;55.82;100214.56;5035601;28;45371;-67
2021/12/02 05:28:30;;;;;;;;;1.00;1.00;;;;;8.97;55.30;100210.22;5034349;28;45860;-67
2021/12/02 05:30:55;;;;;;;;;2.00;1.00;;;;;9.00;55.38;100217.19;5035112;28;45943;-67
2021/12/02 05:33:21;;;;;;;;;1.25;1.00;;;;;8.99;55.58;100215.41;5035687;28;45412;-67
2021/12/02 05:35:47;;;;;;;;;1.00;1.00;;;;;9.00;55.42;100211.97;5037824;28;45706;-67
2021/12/02 05:38:13;;;;;;;;;3.00;2.00;;;;;8.98;55.46;100222.38;5039209;28;46037;-67
2021/12/02 05:40:39;;;;;;;;;1.00;1.00;;;;;8.94;55.36;100215.41;5035400;28;45404;-66
2021/12/02 05:43:04;;;;;;;;;1.75;1.00;;;;;8.80;55.07;100204.97;5034947;28;45603;-67
2021/12/02 05:45:30;;;;;;;;;3.00;1.00;;;;;8.97;55.40;100238.06;5036432;28;45458;-67
2021/12/02 05:47:56;;;;;;;;;3.75;1.00;;;;;8.96;55.50;100231.09;5039507;28;45667;-68
2021/12/02 05:50:25;;;;;;;;;2.50;2.00;;;;;8.83;55.52;100206.72;5037419;28;45347;-68
2021/12/02 05:52:51;;;;;;;;;3.50;2.00;;;;;8.82;55.80;100199.75;5034944;28;45713;-68
2021/12/02 05:55:17;;;;;;;;;4.00;2.00;;;;;8.78;55.88;100201.50;5035231;28;45609;-67
2021/12/02 05:57:43;;;;;;;;;5.75;2.00;;;;;8.86;55.70;100217.16;5034786;28;45512;-68
2021/12/02 06:00:10;;;;;;;;;2.25;2.25;;;;;8.91;55.94;100213.69;5033845;28;45851;-67
2021/12/02 06:02:36;;;;;;;;;3.25;3.25;;;;;8.94;55.70;100225.88;5034675;28;45478;-67
2021/12/02 06:05:04;;;;;;;;;4.25;4.00;;;;;8.96;55.45;100234.56;5034456;28;45403;-67
2021/12/02 06:07:31;;;;;;;;;2.00;2.00;;;;;8.93;55.43;100231.97;5016437;28;47867;-67
2021/12/02 06:09:56;;;;;;;;;4.00;2.00;;;;;8.86;55.14;100230.22;5037437;28;45358;-69
2021/12/02 06:12:23;;;;;;;;;5.75;3.25;;;;;8.72;55.52;100211.06;5033948;28;46017;-67
2021/12/02 06:14:49;;;;;;;;;6.75;6.00;;;;;8.89;55.58;100249.38;5017019;28;45484;-67
2021/12/02 06:17:14;;;;;;;;;2.25;2.00;;;;;8.88;55.40;100255.47;5034509;28;46006;-67
2021/12/02 06:19:40;;;;;;;;;6.25;3.00;;;;;8.85;55.83;100245.03;5036727;28;45342;-68
2021/12/02 06:22:08;;;;;;;;;3.00;3.00;;;;;8.76;55.57;100238.94;5035783;28;45513;-66
2021/12/02 06:24:43;;;;;;;;;4.00;2.25;;;;;8.82;55.48;100258.06;5016338;28;45450;-66
2021/12/02 06:27:10;;;;;;;;;2.00;2.00;;;;;8.68;55.75;100238.91;5033352;28;46347;-67
2021/12/02 06:29:39;;;;;;;;;2.00;2.00;;;;;8.75;56.13;100256.31;5034062;28;45403;-66
2021/12/02 06:32:07;;;;;;;;;4.25;3.00;;;;;8.77;55.44;100267.63;5034317;28;45457;-67
2021/12/02 06:34:33;;;;;;;;;3.50;3.00;;;;;8.76;55.33;100254.59;5034143;28;45541;-67
2021/12/02 06:36:58;;;;;;;;;3.00;3.00;;;;;8.72;55.44;100239.78;5033795;28;45428;-68
2021/12/02 06:39:24;;;;;;;;;2.75;2.75;;;;;8.64;55.94;100239.78;5033873;28;45375;-67
2021/12/02 06:41:50;;;;;;;;;2.50;2.50;;;;;8.69;55.68;100238.91;5034265;28;45366;-67
2021/12/02 06:44:15;;;;;;;;;3.00;3.00;;;;;8.68;55.68;100247.63;5032740;28;45531;-67
2021/12/02 06:46:41;;;;;;;;;4.75;2.75;;;;;8.67;55.75;100258.91;5033741;28;45431;-67
2021/12/02 06:49:06;;;;;;;;;3.50;2.50;;;;;8.69;55.12;100266.75;5033916;28;45441;-67
2021/12/02 06:51:32;;;;;;;;;4.25;2.00;;;;;8.66;55.28;100266.72;5033906;28;45470;-68
2021/12/02 06:53:58;;;;;;;;;2.50;2.00;;;;;8.66;55.44;100269.34;5037891;28;45400;-68
2021/12/02 06:56:24;;;;;;;;;2.75;2.00;;;;;8.55;55.35;100268.47;5038131;28;45468;-68
2021/12/02 06:58:50;;;;;;;;;3.00;2.00;;;;;8.62;55.30;100288.50;5037763;28;45494;-67
2021/12/02 07:01:15;;;;;;;;;4.00;2.75;;;;;8.47;55.09;100277.16;5035643;28;45357;-67
2021/12/02 07:03:41;;;;;;;;;5.50;3.00;;;;;8.59;55.23;100307.63;5016288;28;45461;-67
2021/12/02 07:06:06;;;;;;;;;6.00;3.00;;;;;8.60;55.32;100311.97;5034037;28;46361;-67
2021/12/02 07:08:36;;;;;;;;;9.50;6.75;;;;;8.58;55.17;100313.72;5037454;28;45317;-69
2021/12/02 07:11:05;;;;;;;;;4.50;4.00;;;;;8.57;55.42;100325.03;5033841;28;45351;-68
2021/12/02 07:13:31;;;;;;;;;3.50;3.00;;;;;8.43;55.12;100306.69;5033788;28;45319;-68
2021/12/02 07:15:58;;;;;;;;;3.75;3.75;;;;;8.54;55.42;100339.78;5033120;28;46328;-68
2021/12/02 07:18:25;;;;;;;;;3.00;3.00;;;;;8.53;54.55;100338.94;5033413;28;45459;-68
2021/12/02 07:20:50;;;;;;;;;2.50;2.00;;;;;8.46;54.94;100322.38;5033455;28;45507;-68
2021/12/02 07:23:21;;;;;;;;;3.00;2.75;;;;;8.48;55.10;100333.69;5019292;28;45237;-67
2021/12/02 07:25:48;;;;;;;;;3.00;3.00;;;;;8.46;54.68;100326.72;5033004;28;45581;-67
2021/12/02 07:28:16;;;;;;;;;2.00;2.00;;;;;8.52;54.95;100338.91;5033450;28;45478;-66
2021/12/02 07:30:42;;;;;;;;;2.50;2.50;;;;;8.49;54.29;100330.22;5033654;28;45489;-66
2021/12/02 07:33:13;;;;;;;;;2.25;1.00;;;;;8.54;54.40;100342.41;5033746;28;45913;-66
2021/12/02 07:35:39;;;;;;;;;1.75;1.75;;;;;8.49;54.65;100332.84;5019156;28;46729;-65
2021/12/02 07:38:04;;;;;;;;;4.50;2.75;;;;;8.56;53.88;100349.38;5033851;28;45454;-65
2021/12/02 07:40:36;;;;;;;;;9.75;8.00;;;;;8.46;53.86;100332.81;5036657;28;45353;-65
2021/12/02 07:43:03;;;;;;;;;4.75;4.00;;;;;8.56;54.19;100354.59;5039463;28;45590;-67
2021/12/02 07:45:32;;;;;;;;;5.50;3.00;;;;;8.55;53.76;100337.19;5022700;28;45738;-66
2021/12/02 07:47:59;;;;;;;;;2.25;2.00;;;;;8.60;54.09;100334.59;5040473;28;45507;-66
2021/12/02 07:50:25;;;;;;;;;4.00;3.00;;;;;8.62;54.27;100351.16;5036606;28;45384;-66
2021/12/02 07:52:54;;;;;;;;;5.00;4.50;;;;;8.64;53.45;100336.38;5037391;28;45493;-70
2021/12/02 07:55:23;;;;;;;;;6.00;4.00;;;;;8.64;53.73;100352.03;5036954;28;46489;-69
2021/12/02 07:57:56;;;;;;;;;6.00;3.00;;;;;8.62;53.40;100346.78;5036476;28;45363;-66
2021/12/02 08:00:28;;;;;;;;;6.50;4.00;;;;;9.00;53.07;100361.72;5018182;28;45364;-67
2021/12/02 08:02:55;;;;;;;;;3.75;3.00;;;;;9.12;52.81;100340.84;5040766;28;45434;-68
2021/12/02 08:05:22;;;;;;;;;3.75;3.00;;;;;9.16;52.81;100349.56;5038821;28;45600;-67
2021/12/02 08:07:48;;;;;;;;;6.25;4.00;;;;;9.22;52.44;100357.38;5036425;28;45356;-68
2021/12/02 08:10:15;;;;;;;;;3.00;2.25;;;;;9.71;52.27;100372.25;5036977;28;45601;-67
2021/12/02 08:12:47;;;;;;;;;4.50;3.00;;;;;10.39;50.64;100370.41;5036811;28;45452;-66
2021/12/02 08:15:15;;;;;;;;;3.50;2.00;;;;;11.39;49.35;100362.03;5036631;28;46212;-68
2021/12/02 08:17:41;;;;;;;;;2.00;2.00;;;;;12.32;47.30;100370.84;5036305;28;45432;-68
2021/12/02 08:20:07;;;;;;;;;5.00;4.00;;;;;13.34;46.03;100370.44;5045055;28;45459;-67
2021/12/02 08:22:32;;;;;;;;;4.00;3.75;;;;;14.29;43.76;100375.84;5057910;28;45402;-69
2021/12/02 08:24:59;;;;;;;;;4.00;2.00;;;;;14.59;41.99;100367.38;5037875;28;45326;-69
2021/12/02 08:27:25;;;;;;;;;2.33;2.00;;;;;14.27;42.71;100373.22;5036363;28;45387;-67
2021/12/02 08:29:54;;;;;;;;;1.67;1.67;;;;;13.75;42.81;100361.00;5037237;28;45416;-69
2021/12/02 08:32:20;;;;;;;;;3.67;2.00;;;;;13.51;43.27;100378.91;5038427;28;45515;-67
2021/12/02 18:55:49;;;;;;;;;11.25;11.25;;;;;6.53;57.06;100857.72;5109493;27;45470;-71
2021/12/02 18:58:18;;;;;;;;;8.50;6.00;;;;;6.71;56.31;100866.75;5092441;27;45310;-71
2021/12/02 19:00:44;;;;;;;;;7.00;6.00;;;;;7.09;56.31;100908.25;5096116;27;45255;-74
2021/12/02 19:03:11;;;;;;;;;4.00;4.00;;;;;6.96;55.86;100849.88;5092703;27;45718;-73
2021/12/02 19:05:39;;;;;;;;;5.50;4.00;;;;;6.94;55.38;100818.59;5092288;27;45661;-73
2021/12/02 19:26:44;;;;;;;;;10.50;8.25;;;;;8.15;53.88;100915.28;5079771;27;45649;-72
2021/12/02 19:29:11;;;;;;;;;7.00;7.00;;;;;8.14;53.19;100905.66;5094507;27;45322;-72
2021/12/02 19:31:37;;;;;;;;;8.00;6.00;;;;;8.40;53.24;100940.00;5072735;27;45583;-71
2021/12/02 19:34:05;;;;;;;;;5.50;5.50;;;;;8.08;53.34;100889.06;5070639;27;45491;-71
2021/12/02 19:36:37;;;;;;;;;8.75;6.00;;;;;8.13;53.13;100893.50;5070316;27;45683;-72
2021/12/02 19:39:03;;;;;;;;;6.00;6.00;;;;;8.30;53.17;100936.34;5070168;27;46172;-71
2021/12/02 19:41:31;;;;;;;;;6.25;6.25;;;;;8.07;53.03;100902.13;5072717;27;45475;-72
2021/12/02 19:43:57;;;;;;;;;7.50;6.50;;;;;8.43;52.86;100955.72;5076628;27;45778;-69
2021/12/02 19:46:23;;;;;;;;;7.75;6.50;;;;;8.45;53.05;100957.50;5071469;27;45389;-70
2021/12/02 19:48:50;;;;;;;;;5.00;5.00;;;;;8.36;52.75;100943.41;5071860;27;45465;-70
2021/12/02 19:51:18;;;;;;;;;7.00;6.50;;;;;8.49;53.30;100964.53;5070420;27;45624;-71
2021/12/02 19:53:44;;;;;;;;;6.50;4.75;;;;;8.53;52.88;100975.00;5069502;27;45334;-70
2021/12/02 19:56:29;;;;;;;;;7.50;6.00;;;;;8.49;53.06;100977.59;5071915;27;46624;-72
2021/12/02 19:59:00;;;;;;;;;11.00;8.00;;;;;8.48;53.12;100972.31;5091224;27;45430;-74
2021/12/02 20:01:31;;;;;;;;;14.00;8.50;;;;;8.44;53.31;100971.38;5088948;27;45530;-73
2021/12/02 20:04:27;;;;;;;;;6.00;6.00;;;;;8.42;53.28;100967.91;5089188;27;45645;-73
2021/12/02 20:07:02;;;;;;;;;8.75;8.75;;;;;8.41;53.71;100963.53;5077359;27;46220;-73
2021/12/02 20:09:32;;;;;;;;;7.50;6.50;;;;;8.38;53.01;100967.81;5076258;27;45764;-73
2021/12/02 20:12:00;;;;;;;;;8.50;7.25;;;;;8.36;53.36;100969.50;5077151;28;45449;-72
2021/12/02 20:14:57;;;;;;;;;11.00;8.50;;;;;8.34;53.75;100973.81;5076110;28;45504;-70
2021/12/02 20:17:27;;;;;;;;;7.75;5.75;;;;;8.26;53.49;100964.16;5074704;27;46564;-70
2021/12/02 20:20:04;;;;;;;;;8.75;7.50;;;;;8.26;53.68;100971.09;5076711;27;45590;-72
2021/12/02 20:22:39;;;;;;;;;9.25;7.75;;;;;8.25;53.62;100979.78;5076006;27;45781;-70
2021/12/02 20:25:14;;;;;;;;;8.50;7.00;;;;;8.28;53.84;100967.66;5069474;27;45644;-71
2021/12/02 20:27:45;;;;;;;;;9.25;9.25;;;;;7.64;53.49;100868.44;5075215;27;45452;-72
2021/12/02 20:30:24;;;;;;;;;9.75;8.00;;;;;8.18;53.61;100964.88;5076621;28;45501;-70
2021/12/02 20:33:24;;;;;;;;;9.00;9.00;;;;;8.23;53.76;100987.59;5069620;27;45535;-71
2021/12/02 20:35:54;;;;;;;;;9.00;8.50;;;;;8.22;53.66;100992.78;5077937;27;45805;-71
2021/12/02 20:38:40;;;;;;;;;11.00;7.75;;;;;8.19;53.84;100983.19;5077397;27;45451;-70
2021/12/02 20:41:13;;;;;;;;;7.00;7.00;;;;;8.08;53.96;100969.94;5076689;27;45471;-69
2021/12/02 20:43:41;;;;;;;;;11.00;8.50;;;;;8.20;53.85;101004.94;5073467;27;45533;-73
2021/12/02 20:46:10;;;;;;;;;10.00;8.00;;;;;8.13;54.05;100988.28;5070118;27;45594;-71
2021/12/02 20:48:54;;;;;;;;;6.75;6.75;;;;;8.20;54.15;100999.69;5074495;27;46112;-71
2021/12/02 20:51:21;;;;;;;;;10.75;8.00;;;;;7.14;53.76;100826.78;5071902;27;45515;-71
2021/12/02 20:53:48;;;;;;;;;25.00;21.50;;;;;8.05;54.00;100963.81;5079024;27;45461;-70
2021/12/02 20:56:17;;;;;;;;;12.25;10.25;;;;;7.86;53.79;100920.91;5079445;27;45337;-70
2021/12/02 20:58:43;;;;;;;;;14.00;11.50;;;;;8.17;53.91;100970.97;5079449;28;45727;-71
2021/12/02 21:01:11;;;;;;;;;8.00;8.00;;;;;8.14;53.91;100971.78;5079190;27;45495;-71
2021/12/02 21:03:38;;;;;;;;;9.50;7.00;;;;;7.17;54.22;100824.22;5079876;27;45280;-71
2021/12/02 21:06:04;;;;;;;;;6.25;6.00;;;;;8.14;54.06;100982.22;5067069;27;45547;-73
2021/12/02 21:08:36;;;;;;;;;11.25;8.00;;;;;8.15;54.08;100993.53;5072477;27;46350;-70
2021/12/02 21:11:05;;;;;;;;;9.25;7.25;;;;;8.01;54.09;100975.06;5072046;27;46038;-71
2021/12/02 21:13:32;;;;;;;;;8.50;7.00;;;;;8.13;54.52;100993.50;5075367;28;45984;-71
2021/12/02 21:16:08;;;;;;;;;9.25;8.25;;;;;8.11;54.20;101002.16;5075472;27;45453;-72
2021/12/02 21:18:38;;;;;;;;;9.75;7.50;;;;;8.08;54.30;101003.88;5075470;27;46402;-71
2021/12/02 21:21:06;;;;;;;;;7.00;6.50;;;;;7.90;54.51;100974.88;5069620;27;45523;-72
2021/12/02 21:26:37;;;;;;;;;10.00;8.75;;;;;8.00;54.57;100995.03;5072953;27;45562;-72
2021/12/02 21:29:03;;;;;;;;;8.75;8.75;;;;;8.07;54.55;101009.94;5062664;28;46027;-71
2021/12/02 21:31:30;;;;;;;;;11.00;9.00;;;;;7.73;54.78;100961.53;5069095;27;45731;-72
2021/12/02 21:33:58;;;;;;;;;9.50;8.00;;;;;7.98;54.13;101009.78;5069737;27;45428;-71
2021/12/02 21:36:32;;;;;;;;;8.25;7.75;;;;;7.98;54.70;101017.63;5069547;28;45840;-71
2021/12/02 21:39:07;;;;;;;;;11.00;9.50;;;;;7.38;54.53;100906.19;5065227;28;46266;-72
2021/12/02 21:41:35;;;;;;;;;11.00;10.25;;;;;7.79;54.61;100979.91;5063612;27;46026;-72
2021/12/02 21:44:03;;;;;;;;;12.25;9.00;;;;;7.55;54.44;100941.25;5071838;27;45542;-71
2021/12/02 21:46:30;;;;;;;;;8.50;8.00;;;;;7.72;54.46;100979.78;5074665;28;45982;-70
2021/12/02 21:48:59;;;;;;;;;9.00;6.00;;;;;7.88;55.07;101002.66;5075050;27;45491;-72
2021/12/02 21:51:25;;;;;;;;;12.00;8.75;;;;;7.80;54.66;100988.59;5069698;28;45919;-73
2021/12/02 21:53:52;;;;;;;;;10.50;6.00;;;;;7.88;54.59;101004.38;5071386;27;45823;-72
2021/12/02 21:56:20;;;;;;;;;8.75;7.00;;;;;7.96;54.51;101015.84;5072104;27;45524;-75
2021/12/02 21:58:55;;;;;;;;;66.50;50.00;;;;;7.90;54.63;101008.78;5069714;27;45941;-72
2021/12/02 22:01:34;;;;;;;;;91.33;78.33;;;;;7.88;54.96;101012.19;5064993;28;46192;-71
2021/12/02 22:04:03;;;;;;;;;119.67;95.00;;;;;7.88;54.41;101006.97;5069068;28;45761;-72
2021/12/02 22:06:30;;;;;;;;;79.00;57.67;;;;;7.94;54.85;101018.41;5057345;27;45568;-71
2021/12/02 22:08:55;;;;;;;;;45.00;33.75;;;;;7.80;54.50;101009.47;5065356;27;46216;-73
2021/12/02 22:11:21;;;;;;;;;26.00;21.00;;;;;7.77;54.81;101022.47;5067461;27;45599;-73
2021/12/02 22:13:47;;;;;;;;;17.25;13.75;;;;;7.67;55.57;101017.94;5068575;28;45564;-72
2021/12/02 22:16:14;;;;;;;;;11.50;11.00;;;;;7.03;55.36;100921.19;5069424;27;45677;-72
2021/12/02 22:18:39;;;;;;;;;9.75;8.75;;;;;7.39;55.08;100973.09;5063497;27;46466;-72
2021/12/02 22:21:05;;;;;;;;;13.25;10.00;;;;;6.70;55.42;100847.66;5066765;27;46146;-72
2021/12/02 22:23:31;;;;;;;;;10.75;7.50;;;;;7.54;55.25;100989.00;5058846;27;45961;-73
2021/12/02 22:25:57;;;;;;;;;11.50;9.00;;;;;7.62;55.65;101010.91;5055651;27;45861;-72
2021/12/02 22:28:23;;;;;;;;;7.00;7.00;;;;;7.14;55.33;100958.72;5061486;28;46121;-71